createdAt,value
2022-11-22T00:00:12.854Z,14.00
2022-11-22T00:03:18.947Z,12.38
2022-11-22T00:06:24.647Z,11.68
2022-11-22T00:09:31.605Z,11.70
2022-11-22T00:12:38.341Z,10.90
2022-11-22T00:15:44.545Z,10.60
2022-11-22T00:18:49.930Z,13.18
2022-11-22T00:21:55.597Z,10.60
2022-11-22T00:25:01.211Z,11.68
2022-11-22T00:28:07.040Z,10.30
2022-11-22T00:31:12.305Z,10.75
2022-11-22T00:34:18.359Z,10.65
2022-11-22T00:37:23.934Z,9.90
2022-11-22T00:40:29.729Z,10.18
2022-11-22T00:43:35.494Z,10.48
2022-11-22T00:46:41.057Z,10.40
2022-11-22T00:49:46.487Z,9.73
2022-11-22T00:52:51.936Z,8.48
2022-11-22T00:55:57.476Z,10.73
2022-11-22T00:59:03.158Z,9.93
2022-11-22T01:02:09.208Z,10.50
2022-11-22T01:05:14.949Z,9.45
2022-11-22T01:08:20.713Z,9.38
2022-11-22T01:11:26.574Z,8.93
2022-11-22T01:14:32.229Z,7.97
2022-11-22T01:17:37.579Z,8.23
2022-11-22T01:20:44.365Z,7.63
2022-11-22T01:23:49.800Z,8.98
2022-11-22T01:26:56.159Z,7.18
2022-11-22T01:30:01.995Z,7.15
2022-11-22T01:33:07.959Z,7.03
2022-11-22T01:36:13.411Z,7.65
2022-11-22T01:39:19.184Z,6.53
2022-11-22T01:42:24.731Z,6.25
2022-11-22T01:45:29.784Z,5.53
2022-11-22T01:48:56.679Z,4.57
2022-11-22T01:52:11.518Z,5.90
2022-11-22T01:55:18.320Z,6.45
2022-11-22T01:58:25.325Z,6.22
2022-11-22T02:01:32.209Z,5.20
2022-11-22T02:04:39.585Z,5.70
2022-11-22T02:08:06.272Z,5.78
2022-11-22T02:11:14.005Z,6.25
2022-11-22T02:14:24.951Z,6.50
2022-11-22T02:17:30.547Z,5.03
2022-11-22T02:20:38.816Z,5.68
2022-11-22T02:23:53.037Z,4.65
2022-11-22T02:26:59.288Z,4.75
2022-11-22T02:30:05.281Z,4.80
2022-11-22T02:33:11.483Z,4.97
2022-11-22T02:36:16.988Z,4.60
2022-11-22T02:39:31.276Z,4.70
2022-11-22T02:42:37.344Z,4.20
2022-11-22T02:45:42.728Z,3.75
2022-11-22T02:48:48.621Z,3.20
2022-11-22T02:51:54.476Z,3.67
2022-11-22T02:55:00.102Z,3.75
2022-11-22T02:58:06.647Z,4.13
2022-11-22T03:01:13.810Z,3.38
2022-11-22T03:04:25.747Z,3.58
2022-11-22T03:07:31.509Z,3.63
2022-11-22T03:10:37.276Z,3.47
2022-11-22T03:13:42.602Z,4.13
2022-11-22T03:16:48.222Z,3.63
2022-11-22T03:19:54.196Z,3.88
2022-11-22T03:23:02.749Z,4.40
2022-11-22T03:26:10.694Z,4.40
2022-11-22T03:29:17.719Z,4.05
2022-11-22T03:32:23.423Z,4.40
2022-11-22T03:35:29.052Z,4.85
2022-11-22T03:38:36.379Z,4.80
2022-11-22T03:41:42.014Z,5.03
2022-11-22T03:44:47.347Z,4.70
2022-11-22T03:47:52.809Z,4.30
2022-11-22T03:51:06.119Z,4.28
2022-11-22T03:54:12.445Z,4.50
2022-11-22T03:57:18.063Z,5.50
2022-11-22T04:00:24.274Z,6.13
2022-11-22T04:03:30.278Z,6.07
2022-11-22T04:06:35.696Z,6.55
2022-11-22T04:09:41.289Z,5.95
2022-11-22T04:12:47.127Z,5.07
2022-11-22T04:15:52.637Z,5.68
2022-11-22T04:18:58.470Z,5.38
2022-11-22T04:22:03.980Z,5.45
2022-11-22T04:25:16.010Z,6.07
2022-11-22T04:29:08.130Z,5.22
2022-11-22T04:32:10.552Z,5.60
2022-11-22T04:35:18.979Z,4.18
2022-11-22T04:38:25.474Z,4.93
2022-11-22T04:41:30.609Z,4.50
2022-11-22T04:44:42.328Z,4.82
2022-11-22T04:48:00.261Z,3.95
2022-11-22T04:51:25.896Z,5.55
2022-11-22T04:54:31.260Z,5.20
2022-11-22T04:57:36.589Z,4.65
2022-11-22T05:00:42.769Z,5.00
2022-11-22T05:03:48.340Z,4.45
2022-11-22T05:06:54.150Z,5.03
2022-11-22T05:09:59.632Z,5.45
2022-11-22T05:13:05.376Z,5.10
2022-11-22T05:16:13.970Z,5.57
2022-11-22T05:19:19.778Z,6.13
2022-11-22T05:22:46.671Z,6.22
2022-11-22T05:25:52.263Z,5.00
2022-11-22T05:28:58.948Z,5.00
2022-11-22T05:32:04.419Z,5.75
2022-11-22T05:35:10.098Z,5.95
2022-11-22T05:38:16.001Z,4.43
2022-11-22T05:41:21.343Z,4.05
2022-11-22T05:44:26.849Z,3.35
2022-11-22T05:47:36.950Z,3.30
2022-11-22T05:50:42.545Z,2.65
2022-11-22T05:53:48.454Z,2.40
2022-11-22T05:56:53.925Z,2.15
2022-11-22T05:59:59.151Z,2.72
2022-11-22T06:03:05.128Z,1.60
2022-11-22T06:06:11.799Z,1.50
2022-11-22T06:09:17.535Z,1.30
2022-11-22T06:12:22.918Z,1.58
2022-11-22T06:15:28.204Z,2.05
2022-11-22T06:18:33.894Z,1.27
2022-11-22T06:21:39.233Z,1.52
2022-11-22T06:24:44.898Z,1.10
2022-11-22T06:27:50.676Z,0.95
2022-11-22T06:31:05.139Z,1.10
2022-11-22T06:34:12.946Z,1.17
2022-11-22T06:37:18.414Z,1.25
2022-11-22T06:40:23.787Z,1.00
2022-11-22T06:43:33.421Z,1.05
2022-11-22T06:46:39.339Z,1.00
2022-11-22T06:49:46.829Z,1.13
2022-11-22T06:52:53.291Z,0.80
2022-11-22T06:56:04.016Z,0.88
2022-11-22T06:59:10.033Z,0.80
2022-11-22T07:02:15.292Z,0.90
2022-11-22T07:05:25.953Z,0.90
2022-11-22T07:08:32.698Z,0.70
2022-11-22T07:11:39.781Z,0.90
2022-11-22T07:14:45.591Z,0.80
2022-11-22T07:17:51.058Z,0.50
2022-11-22T07:21:10.952Z,0.90
2022-11-22T07:24:18.441Z,1.10
2022-11-22T07:27:23.812Z,0.60
2022-11-22T07:30:29.096Z,0.77
2022-11-22T07:33:35.624Z,0.88
2022-11-22T07:36:40.970Z,1.10
2022-11-22T07:39:46.212Z,0.90
2022-11-22T07:42:57.008Z,1.00
2022-11-22T07:46:06.965Z,0.82
2022-11-22T07:49:12.760Z,0.80
2022-11-22T07:52:18.516Z,1.00
2022-11-22T07:55:25.777Z,1.58
2022-11-22T07:58:32.702Z,0.80
2022-11-22T08:01:38.301Z,1.10
2022-11-22T08:04:44.503Z,1.13
2022-11-22T08:07:52.864Z,1.00
2022-11-22T08:10:58.511Z,1.15
2022-11-22T08:14:04.256Z,0.68
2022-11-22T08:17:09.824Z,0.80
2022-11-22T08:20:15.835Z,0.85
2022-11-22T08:23:21.455Z,0.80
2022-11-22T08:26:27.033Z,0.80
2022-11-22T08:29:32.605Z,1.10
2022-11-22T08:32:39.250Z,0.90
2022-11-22T08:35:44.612Z,1.42
2022-11-22T08:38:49.757Z,3.97
2022-11-22T08:41:55.076Z,1.73
2022-11-22T08:45:00.430Z,2.08
2022-11-22T08:48:06.016Z,1.52
2022-11-22T08:51:13.251Z,5.07
2022-11-22T08:54:18.666Z,3.00
2022-11-22T08:57:24.409Z,1.30
2022-11-22T09:00:33.406Z,1.00
2022-11-22T09:03:40.487Z,1.83
2022-11-22T09:10:12.139Z,1.60
2022-11-22T09:13:17.912Z,1.23
2022-11-22T09:16:23.479Z,0.70
2022-11-22T09:19:29.838Z,0.73
2022-11-22T09:22:36.122Z,0.95
2022-11-22T09:25:41.807Z,0.85
2022-11-22T09:28:48.312Z,0.80
2022-11-22T09:31:56.390Z,0.90
2022-11-22T09:35:02.341Z,0.95
2022-11-22T09:38:09.176Z,0.60
2022-11-22T09:41:17.289Z,0.55
2022-11-22T09:44:45.916Z,0.65
2022-11-22T09:48:24.768Z,1.40
2022-11-22T09:51:40.304Z,0.73
2022-11-22T09:54:58.426Z,0.40
2022-11-22T09:58:23.791Z,0.80
2022-11-22T10:01:39.707Z,0.75
2022-11-22T10:04:56.761Z,0.90
2022-11-22T10:08:21.783Z,0.60
2022-11-22T10:11:42.898Z,0.90
2022-11-22T10:15:11.859Z,0.70
2022-11-22T10:18:41.640Z,0.80
2022-11-22T10:21:48.263Z,0.65
2022-11-22T10:24:53.697Z,1.00
2022-11-22T10:28:13.205Z,0.55
2022-11-22T10:31:55.463Z,0.60
2022-11-22T10:35:14.789Z,0.90
2022-11-22T10:38:41.480Z,1.00
2022-11-22T10:41:55.195Z,1.20
2022-11-22T10:45:20.386Z,1.10
2022-11-22T10:48:43.219Z,1.20
2022-11-22T10:52:02.342Z,0.82
2022-11-22T10:55:19.378Z,1.38
2022-11-22T10:58:52.021Z,0.90
2022-11-22T11:02:27.129Z,1.02
2022-11-22T11:06:22.325Z,0.73
2022-11-22T11:10:09.605Z,0.88
2022-11-22T11:13:20.760Z,0.50
2022-11-22T11:16:31.428Z,0.75
2022-11-22T11:19:43.486Z,1.20
2022-11-22T11:23:13.606Z,1.92
2022-11-22T11:26:20.279Z,5.03
2022-11-22T11:29:38.735Z,7.87
2022-11-22T11:32:56.157Z,1.83
2022-11-22T11:36:16.531Z,0.90
2022-11-22T11:39:23.752Z,1.35
2022-11-22T11:42:34.582Z,0.85
2022-11-22T11:45:39.926Z,0.70
2022-11-22T11:48:46.411Z,0.95
2022-11-22T11:51:56.193Z,1.70
2022-11-22T11:55:03.116Z,0.70
2022-11-22T11:58:24.318Z,1.17
2022-11-22T12:01:38.485Z,0.70
2022-11-22T12:04:57.068Z,0.70
2022-11-22T12:08:03.203Z,0.70
2022-11-22T12:11:33.742Z,0.63
2022-11-22T12:15:09.592Z,0.70
2022-11-22T12:21:45.212Z,0.68
2022-11-22T12:28:25.340Z,0.70
2022-11-22T12:31:55.517Z,0.60
2022-11-22T12:35:13.128Z,0.50
2022-11-22T12:38:32.414Z,0.65
2022-11-22T12:41:40.508Z,0.95
2022-11-22T12:44:54.551Z,0.70
2022-11-22T12:48:09.190Z,0.63
2022-11-22T12:51:28.633Z,0.68
2022-11-22T12:54:42.910Z,1.17
2022-11-22T12:57:55.245Z,0.70
2022-11-22T13:01:08.365Z,0.70
2022-11-22T13:04:26.704Z,1.40
2022-11-22T13:08:00.448Z,1.00
2022-11-22T13:11:19.834Z,0.73
2022-11-22T13:14:40.074Z,0.70
2022-11-22T13:17:46.033Z,0.88
2022-11-22T13:21:24.512Z,1.10
2022-11-22T13:25:00.471Z,0.82
2022-11-22T13:28:13.620Z,0.95
2022-11-22T13:31:20.136Z,1.95
2022-11-22T13:34:27.302Z,1.17
2022-11-22T13:37:42.183Z,0.90
2022-11-22T13:40:54.166Z,0.80
2022-11-22T13:44:22.504Z,1.52
2022-11-22T13:47:44.052Z,1.13
2022-11-22T13:50:49.192Z,1.00
2022-11-22T13:54:33.197Z,0.95
2022-11-22T13:57:40.861Z,1.60
2022-11-22T14:00:46.588Z,1.48
2022-11-22T14:03:52.006Z,1.67
2022-11-22T14:07:06.933Z,0.73
2022-11-22T14:10:32.229Z,1.05
2022-11-22T14:13:59.706Z,0.73
2022-11-22T14:17:14.251Z,0.85
2022-11-22T14:20:33.538Z,0.90
2022-11-22T14:23:50.755Z,0.80
2022-11-22T14:27:11.739Z,0.82
2022-11-22T14:30:19.875Z,0.80
2022-11-22T14:33:29.025Z,1.35
2022-11-22T14:36:34.557Z,1.10
2022-11-22T14:39:45.819Z,0.90
2022-11-22T14:42:54.786Z,0.80
2022-11-22T14:46:37.410Z,0.80
2022-11-22T14:49:48.255Z,1.15
2022-11-22T14:52:59.075Z,0.95
2022-11-22T14:56:14.959Z,0.70
2022-11-22T14:59:58.936Z,0.43
2022-11-22T15:03:28.944Z,0.40
2022-11-22T15:09:22.733Z,0.40
2022-11-22T15:10:23.186Z,0.38
2022-11-22T15:13:34.432Z,0.32
2022-11-22T16:12:37.440Z,3.15
2022-11-22T16:15:42.947Z,3.63
2022-11-22T16:18:49.066Z,2.90
2022-11-22T16:22:00.131Z,2.58
2022-11-22T16:25:42.127Z,2.70
2022-11-22T16:28:51.137Z,2.38
2022-11-22T16:32:10.915Z,1.90
2022-11-22T16:35:29.068Z,2.08
2022-11-22T16:38:35.498Z,2.08
2022-11-22T16:41:40.932Z,1.60
2022-11-22T16:44:46.526Z,1.13
2022-11-22T16:48:16.531Z,1.17
2022-11-22T16:51:24.575Z,1.20
2022-11-22T16:54:33.010Z,0.80
2022-11-22T16:57:38.232Z,1.17
2022-11-22T17:00:44.889Z,0.70
2022-11-22T17:03:52.524Z,1.08
2022-11-22T17:06:57.942Z,1.67
2022-11-22T17:10:03.476Z,2.38
2022-11-22T17:13:16.882Z,2.13
2022-11-22T17:16:22.274Z,1.65
2022-11-22T17:19:52.222Z,1.13
2022-11-22T17:22:53.475Z,1.35
2022-11-22T17:25:58.875Z,1.55
2022-11-22T17:29:03.895Z,1.88
2022-11-22T17:32:13.564Z,1.60
2022-11-22T17:35:19.043Z,1.13
2022-11-22T17:38:24.472Z,1.52
2022-11-22T17:41:30.952Z,1.52
2022-11-22T17:44:36.685Z,1.17
2022-11-22T17:47:42.388Z,1.20
2022-11-22T17:50:48.493Z,1.35
2022-11-22T17:53:54.459Z,1.70
2022-11-22T17:56:59.910Z,1.63
2022-11-22T18:00:07.502Z,1.40
2022-11-22T18:03:12.756Z,2.20
2022-11-22T18:06:21.922Z,2.03
2022-11-22T18:09:27.080Z,4.88
2022-11-22T18:12:41.995Z,5.32
2022-11-22T18:15:55.361Z,4.20
2022-11-22T18:19:03.433Z,3.90
2022-11-22T18:22:09.179Z,3.55
2022-11-22T18:25:15.123Z,2.63
2022-11-22T18:28:20.940Z,2.10
2022-11-22T18:31:29.839Z,1.70
2022-11-22T18:34:35.777Z,1.40
2022-11-22T18:37:41.818Z,1.92
2022-11-22T18:40:47.422Z,2.55
2022-11-22T18:43:54.873Z,1.63
2022-11-22T18:47:00.485Z,2.17
2022-11-22T18:50:09.603Z,1.35
2022-11-22T18:56:23.810Z,1.92
2022-11-22T18:59:29.569Z,9.27
2022-11-22T19:02:34.749Z,5.18
2022-11-22T19:05:40.424Z,3.83
2022-11-22T19:08:47.492Z,3.05
2022-11-22T19:11:58.673Z,3.40
2022-11-22T19:15:04.378Z,3.13
2022-11-22T19:18:10.036Z,3.47
2022-11-22T19:21:21.990Z,3.40
2022-11-22T19:24:27.653Z,2.80
2022-11-22T19:27:33.082Z,8.80
2022-11-22T19:30:42.788Z,7.93
2022-11-22T19:33:49.602Z,6.95
2022-11-22T19:36:55.085Z,5.30
2022-11-22T19:40:00.318Z,4.72
2022-11-22T19:43:05.991Z,4.45
2022-11-22T19:46:10.986Z,5.00
2022-11-22T19:49:16.609Z,4.57
2022-11-22T19:52:21.619Z,4.20
2022-11-22T19:55:26.991Z,19.10
2022-11-22T19:58:34.284Z,15.02
2022-11-22T20:01:40.440Z,7.53
2022-11-22T20:04:45.824Z,5.97
2022-11-22T20:07:51.637Z,6.90
2022-11-22T20:11:03.070Z,6.00
2022-11-22T20:14:09.733Z,5.00
2022-11-22T20:17:16.028Z,4.32
2022-11-22T20:20:21.832Z,3.40
2022-11-22T20:23:28.486Z,3.42
2022-11-22T20:26:34.687Z,4.60
2022-11-22T20:29:40.671Z,5.50
2022-11-22T20:32:46.032Z,5.50
2022-11-22T20:35:51.794Z,4.63
2022-11-22T20:38:57.441Z,5.50
2022-11-22T20:42:32.579Z,5.07
2022-11-22T20:45:29.709Z,4.65
2022-11-22T20:48:37.321Z,5.10
2022-11-22T20:51:45.144Z,4.78
2022-11-22T20:54:50.837Z,3.88
2022-11-22T20:57:56.601Z,3.53
2022-11-22T21:01:07.788Z,4.18
2022-11-22T21:04:18.717Z,3.90
2022-11-22T21:07:26.090Z,3.63
2022-11-22T21:10:32.620Z,4.20
2022-11-22T21:13:38.231Z,4.85
2022-11-22T21:16:43.501Z,4.70
2022-11-22T21:19:48.923Z,4.32
2022-11-22T21:22:55.118Z,4.85
2022-11-22T21:26:01.182Z,5.53
2022-11-22T21:29:15.923Z,6.45
2022-11-22T21:32:22.313Z,5.65
2022-11-22T21:35:27.784Z,5.75
2022-11-22T21:38:38.899Z,7.15
2022-11-22T21:41:44.846Z,8.23
2022-11-22T21:44:50.085Z,8.82
2022-11-22T21:47:55.559Z,8.52
2022-11-22T21:51:01.452Z,8.45
2022-11-22T21:54:07.304Z,7.10
2022-11-22T21:57:13.296Z,10.18
2022-11-22T22:00:18.781Z,8.68
2022-11-22T22:03:25.186Z,8.70
2022-11-22T22:06:30.559Z,9.35
2022-11-22T22:09:36.167Z,8.60
2022-11-22T22:12:41.781Z,9.13
2022-11-22T22:15:48.695Z,8.57
2022-11-22T22:18:54.704Z,9.88
2022-11-22T22:22:00.357Z,9.25
2022-11-22T22:25:06.500Z,9.15
2022-11-22T22:28:12.319Z,10.65
2022-11-22T22:31:23.380Z,9.90
2022-11-22T22:34:29.070Z,10.32
2022-11-22T22:37:36.040Z,10.40
2022-11-22T22:40:41.565Z,9.55
2022-11-22T22:43:48.983Z,11.30
2022-11-22T22:46:54.609Z,10.52
2022-11-22T22:50:00.412Z,11.15
2022-11-22T22:53:05.903Z,10.88
2022-11-22T22:56:14.297Z,11.73
2022-11-22T22:59:19.747Z,10.75
2022-11-22T23:02:26.006Z,10.60
2022-11-22T23:05:31.482Z,11.02
2022-11-22T23:08:38.597Z,11.48
2022-11-22T23:12:02.034Z,10.65
2022-11-22T23:15:08.032Z,11.57
2022-11-22T23:18:14.070Z,11.55
2022-11-22T23:21:19.904Z,11.75
2022-11-22T23:24:26.027Z,10.63
2022-11-22T23:27:31.470Z,10.95
2022-11-22T23:30:37.068Z,11.68
2022-11-22T23:33:44.277Z,11.20
2022-11-22T23:36:49.661Z,11.73
2022-11-22T23:39:55.373Z,11.95
2022-11-22T23:43:00.819Z,11.45
2022-11-22T23:46:06.625Z,11.77
2022-11-22T23:49:12.352Z,12.07
2022-11-22T23:52:19.331Z,10.25
2022-11-22T23:55:25.252Z,10.00
2022-11-22T23:58:30.872Z,10.30
